Time;durP1;ratioP1;P1;durP2;ratioP2;P2;SDS_P1;SDS_P2;PMS_P1;PMS_P2;Temp;Humidity;BMP_temperature;BMP_pressure;BME280_temperature;BME280_humidity;BME280_pressure;Samples;Min_cycle;Max_cycle;Signal;HPM_P1;HPM_P2
2023/02/12 07:06:35;;;;;;;;;;;;;;;;;;5531034;23;20009;-82
2023/02/12 07:09:02;;;;;;;;;;;;;;;;;;4955801;29;20010;-85
2023/02/12 07:11:29;;;;;;;;;;;;;;;;;;4955961;29;19915;-83
2023/02/12 07:13:54;;;;;;;;;;;;;;;;;;4954755;29;20002;-84
2023/02/12 07:16:20;;;;;;;;;;;;;;;;;;4955609;28;20038;-85
2023/02/12 10:09:01;;;;;;;;;;;;;;;;;;4927729;28;19923;-84
2023/02/12 10:11:45;;;;;;;;;;;;;;;;;;4918719;29;20030;-83
2023/02/12 15:13:38;;;;;;;;;;;;;;;;;;5525976;23;19930;-88
2023/02/12 15:16:22;;;;;;;;;;;;;;;;;;4976593;28;20017;-88
2023/02/12 15:18:51;;;;;;;;;;;;;;;;;;4975513;28;20045;-88
2023/02/12 15:21:27;;;;;;;;;;;;;;;;;;4974519;28;20321;-87
2023/02/12 15:24:01;;;;;;;;;;;;;;;;;;4977921;28;19914;-88
2023/02/12 17:43:07;;;;;;;;;;;;;;;;;;5057056;23;19922;-86
2023/02/12 17:45:33;;;;;;;;;;;;;;;;;;4977164;28;20004;-86
2023/02/12 17:47:58;;;;;;;;;;;;;;;;;;4975529;28;20378;-87
2023/02/12 17:50:23;;;;;;;;;;;;;;;;;;4959127;28;19921;-90
2023/02/12 17:52:49;;;;;;;;;;;;;;;;;;4957102;28;20309;-89
2023/02/12 17:55:16;;;;;;;;;;;;;;;;;;4956207;28;20008;-89
2023/02/12 17:57:44;;;;;;;;;;;;;;;;;;4955936;29;19969;-92
2023/02/12 18:00:11;;;;;;;;;;;;;;;;;;4956552;28;19969;-90
2023/02/12 18:02:36;;;;;;;;;;;;;;;;;;4960109;29;19995;-89
2023/02/12 18:05:02;;;;;;;;;;;;;;;;;;4957604;28;19935;-91
2023/02/12 18:07:27;;;;;;;;;;;;;;;;;;4956586;28;20001;-89
2023/02/12 18:09:52;;;;;;;;;;;;;;;;;;4956604;29;19950;-90
2023/02/12 18:12:18;;;;;;;;;;;;;;;;;;4956692;29;19914;-90
2023/02/12 18:14:43;;;;;;;;;;;;;;;;;;4957571;28;20461;-90
2023/02/12 18:17:09;;;;;;;;;;;;;;;;;;4956312;28;19914;-89
2023/02/12 18:19:37;;;;;;;;;;;;;;;;;;4957526;28;19914;-90
2023/02/12 18:22:02;;;;;;;;;;;;;;;;;;4957608;29;19937;-91
2023/02/12 18:24:33;;;;;;;;;;;;;;;;;;4958092;28;19914;-91
2023/02/12 18:26:58;;;;;;;;;;;;;;;;;;4957709;29;19915;-90
2023/02/12 18:29:24;;;;;;;;;;;;;;;;;;4957130;28;19914;-89
2023/02/12 18:31:53;;;;;;;;;;;;;;;;;;4957366;29;19915;-90
2023/02/12 18:34:18;;;;;;;;;;;;;;;;;;4957387;28;20009;-90
2023/02/12 18:36:44;;;;;;;;;;;;;;;;;;4955624;29;20400;-91
2023/02/12 18:39:09;;;;;;;;;;;;;;;;;;4955357;28;19914;-90
2023/02/12 18:41:34;;;;;;;;;;;;;;;;;;4955914;29;20357;-91
2023/02/12 18:44:00;;;;;;;;;;;;;;;;;;4955252;29;19985;-91
2023/02/12 18:46:28;;;;;;;;;;;;;;;;;;4955121;29;19921;-90
2023/02/12 18:48:53;;;;;;;;;;;;;;;;;;4955199;29;19933;-89
2023/02/12 18:51:22;;;;;;;;;;;;;;;;;;4956480;28;20361;-90
2023/02/12 18:53:55;;;;;;;;;;;;;;;;;;4956848;29;19925;-87
2023/02/12 18:56:23;;;;;;;;;;;;;;;;;;4956303;29;19922;-90
2023/02/12 18:58:55;;;;;;;;;;;;;;;;;;4956235;28;20429;-87
2023/02/12 19:01:21;;;;;;;;;;;;;;;;;;4955102;29;19917;-86
2023/02/12 19:03:49;;;;;;;;;;;;;;;;;;4955020;28;19915;-91
2023/02/12 19:06:15;;;;;;;;;;;;;;;;;;4955434;28;19941;-88
2023/02/12 19:08:41;;;;;;;;;;;;;;;;;;4954653;29;20400;-87
2023/02/12 19:11:10;;;;;;;;;;;;;;;;;;4958360;29;20432;-87
2023/02/12 19:13:36;;;;;;;;;;;;;;;;;;4956236;29;20289;-88
2023/02/12 19:16:08;;;;;;;;;;;;;;;;;;4955783;29;19961;-87
2023/02/12 19:18:33;;;;;;;;;;;;;;;;;;4954780;28;19921;-87
2023/02/12 19:20:59;;;;;;;;;;;;;;;;;;4956271;29;20009;-89
2023/02/12 19:23:24;;;;;;;;;;;;;;;;;;4956185;29;20001;-87
2023/02/12 19:25:50;;;;;;;;;;;;;;;;;;4954773;28;20025;-87
2023/02/12 19:28:15;;;;;;;;;;;;;;;;;;4954901;28;19961;-89
2023/02/12 19:30:40;;;;;;;;;;;;;;;;;;4955875;29;20436;-87
2023/02/12 19:33:06;;;;;;;;;;;;;;;;;;4956471;29;19965;-88
2023/02/12 19:35:44;;;;;;;;;;;;;;;;;;4956919;28;19919;-88
2023/02/12 19:38:10;;;;;;;;;;;;;;;;;;4960273;28;19968;-89
2023/02/12 19:40:35;;;;;;;;;;;;;;;;;;4959701;29;20008;-89
2023/02/12 19:43:00;;;;;;;;;;;;;;;;;;4958326;29;20280;-87
2023/02/12 19:45:25;;;;;;;;;;;;;;;;;;4960009;29;19918;-86
2023/02/12 19:47:51;;;;;;;;;;;;;;;;;;4958271;28;19917;-86
2023/02/12 19:50:16;;;;;;;;;;;;;;;;;;4958005;29;20316;-87
2023/02/12 19:52:41;;;;;;;;;;;;;;;;;;4957966;29;19922;-88
2023/02/12 19:55:07;;;;;;;;;;;;;;;;;;4959310;28;19914;-86
2023/02/12 19:57:32;;;;;;;;;;;;;;;;;;4958038;29;19921;-86
2023/02/12 19:59:58;;;;;;;;;;;;;;;;;;4958867;28;19914;-89
2023/02/12 20:02:23;;;;;;;;;;;;;;;;;;4958638;28;19921;-91
2023/02/12 20:04:48;;;;;;;;;;;;;;;;;;4958209;29;19953;-88
2023/02/12 20:07:14;;;;;;;;;;;;;;;;;;4958090;29;20383;-86
2023/02/12 20:09:39;;;;;;;;;;;;;;;;;;4959397;28;19914;-87
2023/02/12 20:12:07;;;;;;;;;;;;;;;;;;4958420;29;19957;-89
2023/02/12 20:14:34;;;;;;;;;;;;;;;;;;4959464;28;19914;-89
2023/02/12 20:16:59;;;;;;;;;;;;;;;;;;4959446;29;19962;-88
2023/02/12 20:19:29;;;;;;;;;;;;;;;;;;4957547;29;19914;-87
2023/02/12 20:21:56;;;;;;;;;;;;;;;;;;4958033;29;19914;-88
2023/02/12 20:24:25;;;;;;;;;;;;;;;;;;4959282;28;19914;-88
2023/02/12 20:26:50;;;;;;;;;;;;;;;;;;4959808;28;19914;-89
2023/02/12 20:29:16;;;;;;;41.45;25.83;;;;;;;;;;4957405;29;20289;-87
2023/02/12 20:31:42;;;;;;;39.28;25.25;;;;;;;;;;4958630;28;20033;-88
2023/02/12 20:34:14;;;;;;;41.08;26.13;;;;;;;;;;4959108;29;20462;-89
2023/02/12 20:36:41;;;;;;;66.72;40.33;;;;;;;;;;4959875;28;20095;-89
2023/02/12 20:39:09;;;;;;;86.45;49.22;;;;;;;;;;4959967;29;20054;-88
2023/02/12 20:41:38;;;;;;;90.60;50.38;;;;;;;;;;4959979;28;20138;-89
2023/02/12 20:44:05;;;;;;;57.15;35.88;;;;;;;;;;4958527;29;20046;-90
2023/02/12 20:46:41;;;;;;;49.60;31.20;;;;;;;;;;4958590;28;20059;-88
2023/02/12 20:49:14;;;;;;;43.00;28.02;;;;;;;;;;4957303;29;20026;-89
2023/02/12 20:51:40;;;;;;;43.13;27.83;;;;;;;;;;4958548;28;20024;-89
2023/02/12 20:54:05;;;;;;;40.95;27.55;;;;;;;;;;4958170;28;20027;-88
2023/02/12 20:56:34;;;;;;;42.80;28.63;;;;;;;;;;4958366;28;20159;-89
2023/02/12 20:59:01;;;;;;;43.10;28.23;;;;;;;;;;4958108;28;20046;-89
2023/02/12 21:01:35;;;;;;;43.70;27.85;;;;;;;;;;4956577;29;20055;-89
2023/02/12 21:04:13;;;;;;;44.42;29.15;;;;;;;;;;4956718;29;20390;-89
2023/02/12 21:06:41;;;;;;;52.97;31.85;;;;;;;;;;4956804;28;20027;-88
2023/02/12 21:09:08;;;;;;;;;;;;;;;;;;4958054;29;20102;-88
2023/02/12 21:11:34;;;;;;;;;;;;;;;;;;4956996;29;20280;-89
2023/02/12 21:13:59;;;;;;;;;;;;;;;;;;4957751;29;20017;-88
2023/02/12 21:16:26;;;;;;;;;;;;;;;;;;4957899;29;20361;-88
2023/02/12 21:18:52;;;;;;;;;;;;;;;;;;4956621;29;19914;-88
2023/02/12 21:21:18;;;;;;;;;;;;;;;;;;4957502;28;20384;-88
2023/02/12 21:23:44;;;;;;;;;;;;;;;;;;4958018;29;19914;-89
2023/02/12 21:26:12;;;;;;;;;;;;;;;;;;4956011;28;21331;-89
2023/02/12 21:28:38;;;;;;;;;;;;;;;;;;4957591;29;20261;-88
2023/02/12 21:31:22;;;;;;;;;;;;;;;;;;4957515;29;19946;-88
2023/02/12 21:33:49;;;;;;;;;;;;;;;;;;4957351;29;20371;-88
2023/02/12 21:36:16;;;;;;;;;;;;;;;;;;4956132;28;20010;-88
2023/02/12 21:38:42;;;;;;;;;;;;;;;;;;4956033;29;20012;-89
2023/02/12 21:41:11;;;;;;;;;;;;;;;;;;4956188;28;20284;-89
2023/02/12 21:43:37;;;;;;;;;;;;;;;;;;4957197;29;20416;-88
2023/02/12 21:46:02;;;;;;;;;;;;;;;;;;4957450;28;19927;-87
2023/02/12 21:48:30;;;;;;;;;;;;;;;;;;4957439;29;20323;-88
2023/02/12 21:50:56;;;;;;;;;;;;;;;;;;4957411;28;19919;-88
2023/02/12 21:53:21;;;;;;;;;;;;;;;;;;4955858;29;19926;-87
2023/02/12 21:55:49;;;;;;;;;;;;;;;;;;4955902;29;19919;-88
2023/02/12 21:58:14;;;;;;;;;;;;;;;;;;4955447;28;19954;-89
2023/02/12 22:00:40;;;;;;;;;;;;;;;;;;4955986;29;20009;-88
2023/02/12 22:03:05;;;;;;;;;;;;;;;;;;4957056;29;19918;-87
2023/02/12 22:05:31;;;;;;;;;;;;;;;;;;4955795;28;19973;-87
2023/02/12 22:07:57;;;;;;;;;;;;;;;;;;4969323;28;19925;-88
2023/02/12 22:10:22;;;;;;;;;;;;;;;;;;4974913;28;19922;-88
2023/02/12 22:12:48;;;;;;;;;;;;;;;;;;4974922;28;19918;-87
2023/02/12 22:15:13;;;;;;;;;;;;;;;;;;4975777;28;19950;-87
2023/02/12 22:17:38;;;;;;;;;;;;;;;;;;4976007;28;19926;-87
2023/02/12 22:20:04;;;;;;;;;;;;;;;;;;4976001;28;19918;-87
2023/02/12 22:22:29;;;;;;;;;;;;;;;;;;4975845;28;20007;-88
2023/02/12 22:24:55;;;;;;;;;;;;;;;;;;4975701;28;19922;-87
2023/02/12 22:27:20;;;;;;;;;;;;;;;;;;4975858;28;19973;-88
2023/02/12 22:29:45;;;;;;;;;;;;;;;;;;4975722;28;19958;-88
2023/02/12 22:32:11;;;;;;;;;;;;;;;;;;4975639;28;19972;-88
2023/02/12 22:34:36;;;;;;;;;;;;;;;;;;4974518;28;20410;-88
2023/02/12 22:37:01;;;;;;;;;;;;;;;;;;4975729;28;19918;-88
2023/02/12 22:39:28;;;;;;;;;;;;;;;;;;4975484;28;19926;-88
2023/02/12 22:41:54;;;;;;;;;;;;;;;;;;4975634;28;19917;-88
2023/02/12 22:44:19;;;;;;;;;;;;;;;;;;4975263;28;19922;-87
2023/02/12 22:46:45;;;;;;;;;;;;;;;;;;4975409;28;19977;-88
2023/02/12 22:49:10;;;;;;;;;;;;;;;;;;4975343;28;20348;-88
2023/02/12 22:51:37;;;;;;;;;;;;;;;;;;4975350;28;19918;-88
2023/02/12 22:54:04;;;;;;;;;;;;;;;;;;4975317;28;20020;-87
2023/02/12 22:56:30;;;;;;;;;;;;;;;;;;4974054;28;19918;-88
2023/02/12 22:58:56;;;;;;;;;;;;;;;;;;4974085;28;19918;-88
2023/02/12 23:01:22;;;;;;;;;;;;;;;;;;4975245;28;19925;-88
2023/02/12 23:03:47;;;;;;;;;;;;;;;;;;4975213;28;19918;-87
2023/02/12 23:06:14;;;;;;;;;;;;;;;;;;4975218;28;20013;-88
2023/02/12 23:08:39;;;;;;;;;;;;;;;;;;4974141;28;19926;-87
2023/02/12 23:11:04;;;;;;;;;;;;;;;;;;4978408;28;20285;-87
2023/02/12 23:13:30;;;;;;;;;;;;;;;;;;4979557;28;20021;-87
2023/02/12 23:15:55;;;;;;;;;;;;;;;;;;4979124;28;19965;-87
2023/02/12 23:18:21;;;;;;;;;;;;;;;;;;4979202;28;19918;-88
2023/02/12 23:20:47;;;;;;;;;;;;;;;;;;4977997;28;19973;-88
2023/02/12 23:23:13;;;;;;;;;;;;;;;;;;4978136;28;20013;-87
2023/02/12 23:25:38;;;;;;;;;;;;;;;;;;4979166;28;20006;-87
2023/02/12 23:28:03;;;;;;;;;;;;;;;;;;4979381;28;20012;-88
2023/02/12 23:30:29;;;;;;;;;;;;;;;;;;4979051;28;19981;-87
2023/02/12 23:32:54;;;;;;;;;;;;;;;;;;4977670;28;19918;-88
2023/02/12 23:35:19;;;;;;;;;;;;;;;;;;4978562;28;19922;-88
2023/02/12 23:37:44;;;;;;;;;;;;;;;;;;4978800;28;19918;-86
